Time;durP1;ratioP1;P1;durP2;ratioP2;P2;SDS_P1;SDS_P2;PMS_P1;PMS_P2;Temp;Humidity;BMP_temperature;BMP_pressure;BME280_temperature;BME280_humidity;BME280_pressure;Samples;Min_cycle;Max_cycle;Signal;HPM_P1;HPM_P2
2023/11/02 00:02:26;;;;;;;2.40;0.90;;;18.30;57.70;;;;;;5094806;28;20234;-61
2023/11/02 00:04:54;;;;;;;2.25;0.98;;;18.40;57.70;;;;;;5095179;28;20201;-61
2023/11/02 00:07:21;;;;;;;1.95;1.00;;;18.30;57.60;;;;;;5094866;28;20252;-60
2023/11/02 00:09:50;;;;;;;2.55;1.00;;;18.30;58.30;;;;;;5094276;28;20277;-61
2023/11/02 00:12:20;;;;;;;5.68;0.80;;;18.30;57.60;;;;;;5095173;28;20218;-61
2023/11/02 00:14:52;;;;;;;1.42;0.90;;;18.30;57.60;;;;;;5094724;28;20218;-62
2023/11/02 00:17:55;;;;;;;2.40;0.90;;;18.40;57.70;;;;;;5093436;28;20257;-63
2023/11/02 00:20:37;;;;;;;1.55;0.70;;;18.40;57.80;;;;;;5094815;28;20190;-62
2023/11/02 00:23:04;;;;;;;3.08;1.10;;;18.30;57.70;;;;;;5094411;28;20768;-63
2023/11/02 00:25:52;;;;;;;1.67;0.80;;;18.30;58.00;;;;;;5094203;28;20194;-61
2023/11/02 00:28:19;;;;;;;3.15;1.20;;;18.30;57.80;;;;;;5094486;28;20619;-60
2023/11/02 00:30:50;;;;;;;1.85;1.10;;;18.40;57.80;;;;;;5094434;28;20186;-54
2023/11/02 00:33:19;;;;;;;3.67;1.30;;;18.40;57.80;;;;;;5094237;28;20244;-62
2023/11/02 00:35:48;;;;;;;3.30;1.00;;;18.30;57.80;;;;;;5094243;28;20199;-59
2023/11/02 00:38:23;;;;;;;1.75;0.93;;;18.40;57.80;;;;;;5094287;28;20630;-60
2023/11/02 00:40:51;;;;;;;2.50;1.02;;;18.40;57.80;;;;;;5094076;28;20196;-61
2023/11/02 00:43:19;;;;;;;3.00;1.20;;;18.40;57.70;;;;;;5094074;28;20714;-58
2023/11/02 00:45:48;;;;;;;3.83;1.02;;;18.30;57.60;;;;;;5093708;28;20182;-61
2023/11/02 00:48:18;;;;;;;1.95;0.95;;;18.40;57.70;;;;;;5093771;28;20302;-62
2023/11/02 00:51:26;;;;;;;2.28;1.08;;;18.30;57.60;;;;;;5094089;28;20259;-62
2023/11/02 00:53:55;;;;;;;3.35;1.10;;;18.30;57.60;;;;;;5093633;28;20605;-62
2023/11/02 00:56:28;;;;;;;1.85;1.10;;;18.30;57.60;;;;;;5093567;28;20620;-58
2023/11/02 00:58:55;;;;;;;4.88;1.40;;;18.30;57.70;;;;;;5093814;28;20182;-63
2023/11/02 01:01:25;;;;;;;5.85;1.02;;;18.30;57.60;;;;;;5093418;28;20305;-60
2023/11/02 01:03:55;;;;;;;3.47;1.10;;;18.30;57.60;;;;;;5093493;28;20182;-62
2023/11/02 01:06:27;;;;;;;4.03;1.30;;;18.30;57.60;;;;;;5093632;28;20222;-62
2023/11/02 01:09:03;;;;;;;5.68;1.75;;;18.40;57.70;;;;;;5093373;28;20222;-59
2023/11/02 01:11:33;;;;;;;5.35;2.13;;;18.30;57.60;;;;;;5093706;28;20217;-60
2023/11/02 01:14:13;;;;;;;2.80;1.35;;;18.30;57.60;;;;;;5093630;28;20232;-56
2023/11/02 01:16:48;;;;;;;7.72;1.38;;;18.30;57.50;;;;;;5092938;28;20213;-60
2023/11/02 01:19:53;;;;;;;6.60;1.40;;;18.40;57.60;;;;;;5093431;28;20277;-62
2023/11/02 01:22:49;;;;;;;6.00;1.65;;;18.30;57.50;;;;;;5071818;28;20240;-62
2023/11/02 01:25:17;;;;;;;4.43;1.55;;;18.30;57.50;;;;;;5089542;28;20190;-59
2023/11/02 01:27:44;;;;;;;9.38;1.95;;;18.30;57.50;;;;;;5093351;28;20304;-57
2023/11/02 01:30:49;;;;;;;4.85;1.35;;;18.30;57.50;;;;;;5093286;28;20195;-59
2023/11/02 01:33:57;;;;;;;5.85;1.50;;;18.30;57.50;;;;;;5093257;28;20304;-61
2023/11/02 01:36:37;;;;;;;8.73;2.63;;;18.30;57.50;;;;;;5093162;28;20213;-58
2023/11/02 01:39:30;;;;;;;6.57;1.98;;;18.30;57.50;;;;;;5092617;28;20236;-60
2023/11/02 01:42:10;;;;;;;6.82;2.00;;;18.30;57.50;;;;;;5093086;28;20240;-59
2023/11/02 01:44:42;;;;;;;8.05;2.10;;;18.30;57.40;;;;;;5092971;28;20590;-62
2023/11/02 01:47:14;;;;;;;9.75;1.90;;;18.30;57.50;;;;;;5092708;28;20214;-59
2023/11/02 01:49:51;;;;;;;10.55;2.20;;;18.30;57.40;;;;;;5092836;28;20722;-61
2023/11/02 01:52:38;;;;;;;9.27;2.03;;;18.30;57.40;;;;;;5093016;28;20214;-61
2023/11/02 01:55:14;;;;;;;6.03;2.13;;;18.30;57.40;;;;;;5092685;28;20197;-62
2023/11/02 01:57:51;;;;;;;5.72;1.95;;;18.30;57.30;;;;;;5092979;28;20296;-61
2023/11/02 02:00:21;;;;;;;8.73;2.60;;;18.30;57.30;;;;;;5092255;28;20276;-61
2023/11/02 02:02:57;;;;;;;11.20;3.00;;;18.30;57.20;;;;;;5092751;28;20233;-62
2023/11/02 02:05:27;;;;;;;7.07;2.40;;;18.30;57.30;;;;;;5092742;28;20684;-60
2023/11/02 02:08:04;;;;;;;7.35;2.10;;;18.30;57.20;;;;;;5092510;28;20229;-58
2023/11/02 02:10:46;;;;;;;8.13;2.30;;;18.40;57.30;;;;;;5092728;28;20190;-59
2023/11/02 02:13:28;;;;;;;6.43;2.05;;;18.30;57.20;;;;;;5092700;28;20209;-63
2023/11/02 02:16:06;;;;;;;8.77;2.67;;;18.30;57.40;;;;;;5092188;28;20186;-58
2023/11/02 02:18:43;;;;;;;4.85;2.08;;;18.30;57.20;;;;;;5092251;28;20626;-63
2023/11/02 02:21:16;;;;;;;8.02;2.20;;;18.30;57.20;;;;;;5092402;28;20189;-61
2023/11/02 02:23:53;;;;;;;9.07;2.20;;;18.30;57.20;;;;;;5091846;28;20776;-59
2023/11/02 02:26:40;;;;;;;10.13;2.22;;;18.30;57.10;;;;;;5092224;28;20276;-61
2023/11/02 02:29:42;;;;;;;6.93;2.33;;;18.30;57.10;;;;;;5092568;28;20200;-63
2023/11/02 02:32:42;;;;;;;8.07;1.85;;;18.30;57.10;;;;;;5092481;28;20220;-63
2023/11/02 02:35:15;;;;;;;7.38;2.00;;;18.30;57.00;;;;;;5089098;28;20198;-60
2023/11/02 02:37:50;;;;;;;7.88;2.08;;;18.30;57.00;;;;;;5092373;28;20296;-62
2023/11/02 02:40:22;;;;;;;8.18;2.13;;;18.30;57.60;;;;;;5094628;28;20271;-62
2023/11/02 02:42:50;;;;;;;7.30;1.95;;;18.40;57.10;;;;;;5096560;28;20229;-61
2023/11/02 02:45:18;;;;;;;7.22;2.08;;;18.30;57.00;;;;;;5095658;28;20671;-61
2023/11/02 02:47:47;;;;;;;8.35;2.42;;;18.30;57.00;;;;;;5096116;28;20309;-63
2023/11/02 02:50:18;;;;;;;9.38;2.03;;;18.30;56.90;;;;;;5096436;28;20190;-62
2023/11/02 02:52:48;;;;;;;8.30;2.45;;;18.40;57.00;;;;;;5096124;28;20247;-61
2023/11/02 02:55:18;;;;;;;8.52;2.20;;;18.30;56.80;;;;;;5096249;28;20186;-61
2023/11/02 02:57:48;;;;;;;9.45;2.42;;;18.30;56.80;;;;;;5096271;28;20304;-60
2023/11/02 03:00:16;;;;;;;7.40;2.10;;;18.30;56.80;;;;;;5095847;28;20214;-62
2023/11/02 03:02:44;;;;;;;10.27;2.63;;;18.30;56.80;;;;;;5096006;28;20234;-61
2023/11/02 03:05:13;;;;;;;9.35;2.78;;;18.40;56.90;;;;;;5096581;28;20194;-60
2023/11/02 03:07:42;;;;;;;10.27;2.50;;;18.30;56.80;;;;;;5095779;28;20301;-63
2023/11/02 03:10:11;;;;;;;7.85;2.45;;;18.40;56.90;;;;;;5096031;28;20201;-63
2023/11/02 03:12:42;;;;;;;8.82;2.20;;;18.40;56.90;;;;;;5095962;28;20297;-60
2023/11/02 03:15:13;;;;;;;7.05;2.17;;;18.30;56.80;;;;;;5095481;28;20273;-63
2023/11/02 03:18:03;;;;;;;9.18;2.22;;;18.30;56.80;;;;;;5095509;28;20722;-61
2023/11/02 03:20:29;;;;;;;7.70;2.25;;;18.30;56.80;;;;;;5095920;28;20273;-61
2023/11/02 03:23:03;;;;;;;7.75;2.28;;;18.30;56.80;;;;;;5095530;28;20621;-62
2023/11/02 03:25:41;;;;;;;9.10;2.47;;;18.30;56.80;;;;;;5095682;28;20186;-56
2023/11/02 03:28:23;;;;;;;9.48;2.40;;;18.30;56.80;;;;;;5095878;28;20213;-60
2023/11/02 03:30:55;;;;;;;9.68;2.13;;;18.30;56.80;;;;;;5095141;28;20687;-61
2023/11/02 03:33:33;;;;;;;5.72;1.83;;;18.30;56.80;;;;;;5095513;28;20222;-61
2023/11/02 03:36:06;;;;;;;9.40;2.25;;;18.30;56.90;;;;;;5095584;28;20186;-59
2023/11/02 03:39:02;;;;;;;7.13;1.95;;;18.30;56.80;;;;;;5094971;28;20711;-61
2023/11/02 03:41:45;;;;;;;7.90;2.08;;;18.30;56.90;;;;;;5095378;28;20273;-63
2023/11/02 03:44:16;;;;;;;7.03;2.03;;;18.30;56.90;;;;;;5094587;28;20210;-62
2023/11/02 03:47:05;;;;;;;9.63;2.47;;;18.30;56.90;;;;;;5095305;28;20295;-63
2023/11/02 03:49:38;;;;;;;9.07;2.45;;;18.30;56.90;;;;;;5094065;28;20213;-62
2023/11/02 03:52:23;;;;;;;9.85;2.17;;;18.30;56.90;;;;;;5093661;28;20214;-62
2023/11/02 03:55:25;;;;;;;7.90;2.30;;;18.30;57.00;;;;;;5062279;28;20282;-61
2023/11/02 03:57:59;;;;;;;7.53;2.75;;;18.30;57.60;;;;;;5061325;28;20305;-61
2023/11/02 04:00:26;;;;;;;8.27;2.80;;;18.30;57.00;;;;;;5094735;28;20221;-60
2023/11/02 04:03:48;;;;;;;8.93;2.38;;;18.30;57.00;;;;;;5094496;28;20276;-61
2023/11/02 04:06:19;;;;;;;9.48;2.35;;;18.30;57.00;;;;;;5093635;28;20194;-63
2023/11/02 04:18:53;;;;;;;11.18;2.72;;;18.30;57.00;;;;;;5115178;28;20208;-62
2023/11/02 04:21:20;;;;;;;8.95;2.50;;;18.30;57.10;;;;;;5114638;28;20186;-63
2023/11/02 04:23:47;;;;;;;6.63;2.20;;;18.30;57.10;;;;;;5114927;28;20316;-61
2023/11/02 04:26:14;;;;;;;9.50;2.53;;;18.30;57.10;;;;;;5115017;28;20523;-60
2023/11/02 04:28:42;;;;;;;10.48;2.65;;;18.30;57.10;;;;;;5114766;28;20296;-61
